createdAt,value
2016-05-06T00:00:09.929Z,1015.43
2016-05-06T00:00:19.931Z,1015.43
2016-05-06T00:00:29.931Z,1015.42
2016-05-06T00:00:39.916Z,1015.45
2016-05-06T00:00:49.916Z,1015.43
2016-05-06T00:00:59.916Z,1015.41
2016-05-06T00:01:09.900Z,1015.42
2016-05-06T00:01:19.902Z,1015.41
2016-05-06T00:01:29.902Z,1015.41
2016-05-06T00:01:39.746Z,1015.42
2016-05-06T00:01:49.886Z,1015.41
2016-05-06T00:01:59.886Z,1015.41
2016-05-06T00:02:09.886Z,1015.41
2016-05-06T00:02:19.718Z,1015.38
2016-05-06T00:02:29.875Z,1015.43
2016-05-06T00:02:39.859Z,1015.42
2016-05-06T00:02:49.859Z,1015.4
2016-05-06T00:02:59.859Z,1015.38
2016-05-06T00:03:09.843Z,1015.39
2016-05-06T00:03:19.690Z,1015.36
2016-05-06T00:03:29.690Z,1015.38
2016-05-06T00:03:39.690Z,1015.4
2016-05-06T00:03:49.831Z,1015.44
2016-05-06T00:03:59.862Z,1015.4
2016-05-06T00:04:09.815Z,1015.43
2016-05-06T00:04:19.817Z,1015.43
2016-05-06T00:04:29.661Z,1015.39
2016-05-06T00:04:39.817Z,1015.43
2016-05-06T00:04:49.661Z,1015.39
2016-05-06T00:04:59.802Z,1015.37
2016-05-06T00:05:09.802Z,1015.39
2016-05-06T00:05:19.788Z,1015.42
2016-05-06T00:05:29.788Z,1015.39
2016-05-06T00:05:39.788Z,1015.39
2016-05-06T00:05:49.772Z,1015.4
2016-05-06T00:05:59.772Z,1015.38
2016-05-06T00:06:09.772Z,1015.39
2016-05-06T00:06:19.603Z,1015.41
2016-05-06T00:06:29.603Z,1015.39
2016-05-06T00:06:39.760Z,1015.4
2016-05-06T00:06:49.760Z,1015.35
2016-05-06T00:06:59.744Z,1015.4
2016-05-06T00:07:09.588Z,1015.44
2016-05-06T00:07:19.730Z,1015.4
2016-05-06T00:07:29.730Z,1015.41
2016-05-06T00:07:39.730Z,1015.41
2016-05-06T00:07:49.715Z,1015.44
2016-05-06T00:07:59.559Z,1015.42
2016-05-06T00:08:09.559Z,1015.43
2016-05-06T00:08:19.719Z,1015.35
2016-05-06T00:08:29.719Z,1015.42
2016-05-06T00:08:39.703Z,1015.39
2016-05-06T00:08:49.703Z,1015.42
2016-05-06T00:08:59.688Z,1015.45
2016-05-06T00:09:09.547Z,1015.43
2016-05-06T00:09:19.690Z,1015.42
2016-05-06T00:09:29.674Z,1015.4
2016-05-06T00:09:39.518Z,1015.42
2016-05-06T00:09:49.518Z,1015.43
2016-05-06T00:09:59.674Z,1015.41
2016-05-06T00:10:09.518Z,1015.4
2016-05-06T00:10:19.896Z,1015.46
2016-05-06T00:10:29.880Z,1015.43
2016-05-06T00:10:39.708Z,1015.4
2016-05-06T00:10:49.646Z,1015.39
2016-05-06T00:10:59.646Z,1015.41
2016-05-06T00:11:09.318Z,1015.36
2016-05-06T00:11:19.632Z,1015.42
2016-05-06T00:11:29.632Z,1015.4
2016-05-06T00:11:39.616Z,1015.4
2016-05-06T00:11:49.632Z,1015.45
2016-05-06T00:11:59.616Z,1015.42
2016-05-06T00:12:09.445Z,1015.43
2016-05-06T00:12:19.699Z,1015.46
2016-05-06T00:12:29.589Z,1015.44
2016-05-06T00:12:39.589Z,1015.41
2016-05-06T00:12:50.542Z,1015.41
2016-05-06T00:12:59.589Z,1015.4
2016-05-06T00:13:09.589Z,1015.42
2016-05-06T00:13:19.576Z,1015.44
2016-05-06T00:13:29.576Z,1015.42
2016-05-06T00:13:39.560Z,1015.42
2016-05-06T00:13:49.544Z,1015.42
2016-05-06T00:13:59.560Z,1015.41
2016-05-06T00:14:09.388Z,1015.39
2016-05-06T00:14:19.391Z,1015.41
2016-05-06T00:14:29.266Z,1015.48
2016-05-06T00:14:39.391Z,1015.42
2016-05-06T00:14:49.532Z,1015.43
2016-05-06T00:14:59.532Z,1015.42
2016-05-06T00:15:09.516Z,1015.44
2016-05-06T00:15:19.518Z,1015.45
2016-05-06T00:15:29.362Z,1015.46
2016-05-06T00:15:39.502Z,1015.44
2016-05-06T00:15:49.518Z,1015.47
2016-05-06T00:15:59.502Z,1015.47
2016-05-06T00:16:09.502Z,1015.44
2016-05-06T00:16:19.349Z,1015.43
2016-05-06T00:16:29.334Z,1015.45
2016-05-06T00:16:39.490Z,1015.4
2016-05-06T00:16:49.318Z,1015.45
2016-05-06T00:16:59.474Z,1015.4
2016-05-06T00:17:09.459Z,1015.41
2016-05-06T00:17:19.320Z,1015.42
2016-05-06T00:17:29.461Z,1015.45
2016-05-06T00:17:39.461Z,1015.41
2016-05-06T00:17:49.461Z,1015.43
2016-05-06T00:17:59.429Z,1015.41
2016-05-06T00:18:09.445Z,1015.39
2016-05-06T00:18:19.433Z,1015.37
2016-05-06T00:18:29.418Z,1015.38
2016-05-06T00:18:39.433Z,1015.39
2016-05-06T00:18:49.418Z,1015.38
2016-05-06T00:18:59.418Z,1015.36
2016-05-06T00:19:09.418Z,1015.41
2016-05-06T00:19:19.404Z,1015.41
2016-05-06T00:19:29.404Z,1015.39
2016-05-06T00:19:39.388Z,1015.35
2016-05-06T00:19:49.404Z,1015.42
2016-05-06T00:19:59.388Z,1015.38
2016-05-06T00:20:09.404Z,1015.44
2016-05-06T00:20:19.390Z,1015.38
2016-05-06T00:20:29.390Z,1015.41
2016-05-06T00:20:39.368Z,1015.38
2016-05-06T00:20:49.368Z,1015.4
2016-05-06T00:20:59.368Z,1015.41
2016-05-06T00:21:09.368Z,1015.39
2016-05-06T00:21:19.356Z,1015.38
2016-05-06T00:21:29.356Z,1015.4
2016-05-06T00:21:39.341Z,1015.4
2016-05-06T00:21:49.169Z,1015.38
2016-05-06T00:21:59.341Z,1015.39
2016-05-06T00:22:09.341Z,1015.36
2016-05-06T00:22:19.341Z,1015.35
2016-05-06T00:22:29.327Z,1015.35
2016-05-06T00:22:39.327Z,1015.36
2016-05-06T00:22:49.155Z,1015.35
2016-05-06T00:22:59.155Z,1015.38
2016-05-06T00:23:09.296Z,1015.38
2016-05-06T00:23:18.999Z,1015.37
2016-05-06T00:23:29.143Z,1015.36
2016-05-06T00:23:39.283Z,1015.37
2016-05-06T00:23:49.299Z,1015.35
2016-05-06T00:23:59.283Z,1015.37
2016-05-06T00:24:09.283Z,1015.37
2016-05-06T00:24:19.283Z,1015.35
2016-05-06T00:24:29.285Z,1015.36
2016-05-06T00:24:39.270Z,1015.35
2016-05-06T00:24:49.254Z,1015.35
2016-05-06T00:24:59.238Z,1015.38
2016-05-06T00:25:09.238Z,1015.39
2016-05-06T00:25:19.238Z,1015.38
2016-05-06T00:25:29.257Z,1015.39
2016-05-06T00:25:41.023Z,1015.36
2016-05-06T00:25:49.241Z,1015.37
2016-05-06T00:25:59.226Z,1015.35
2016-05-06T00:26:09.210Z,1015.33
2016-05-06T00:26:19.054Z,1015.32
2016-05-06T00:26:29.229Z,1015.35
2016-05-06T00:26:39.213Z,1015.37
2016-05-06T00:26:49.198Z,1015.3
2016-05-06T00:26:59.041Z,1015.39
2016-05-06T00:27:09.182Z,1015.36
2016-05-06T00:27:19.041Z,1015.33
2016-05-06T00:27:29.201Z,1015.35
2016-05-06T00:27:39.185Z,1015.34
2016-05-06T00:27:49.169Z,1015.33
2016-05-06T00:27:59.169Z,1015.33
2016-05-06T00:28:09.169Z,1015.34
2016-05-06T00:28:19.154Z,1015.31
2016-05-06T00:28:29.156Z,1015.32
2016-05-06T00:28:39.171Z,1015.35
2016-05-06T00:28:49.015Z,1015.36
2016-05-06T00:28:59.140Z,1015.34
2016-05-06T00:29:09.140Z,1015.34
2016-05-06T00:29:19.124Z,1015.28
2016-05-06T00:29:29.127Z,1015.35
2016-05-06T00:29:39.127Z,1015.33
2016-05-06T00:29:49.112Z,1015.36
2016-05-06T00:29:58.956Z,1015.36
2016-05-06T00:30:09.112Z,1015.36
2016-05-06T00:30:18.940Z,1015.34
2016-05-06T00:30:29.099Z,1015.33
2016-05-06T00:30:39.099Z,1015.29
2016-05-06T00:30:49.099Z,1015.33
2016-05-06T00:30:59.084Z,1015.32
2016-05-06T00:31:09.099Z,1015.32
2016-05-06T00:31:19.084Z,1015.3
2016-05-06T00:31:29.070Z,1015.34
2016-05-06T00:31:39.070Z,1015.34
2016-05-06T00:31:49.070Z,1015.34
2016-05-06T00:31:58.914Z,1015.33
2016-05-06T00:32:08.898Z,1015.31
2016-05-06T00:32:19.054Z,1015.31
2016-05-06T00:32:29.057Z,1015.31
2016-05-06T00:32:39.042Z,1015.28
2016-05-06T00:32:48.885Z,1015.36
2016-05-06T00:32:59.026Z,1015.31
2016-05-06T00:33:09.026Z,1015.3
2016-05-06T00:33:19.026Z,1015.32
2016-05-06T00:33:29.185Z,1015.36
2016-05-06T00:33:38.873Z,1015.34
2016-05-06T00:33:49.013Z,1015.33
2016-05-06T00:33:58.857Z,1015.31
2016-05-06T00:34:08.998Z,1015.32
2016-05-06T00:34:18.842Z,1015.31
2016-05-06T00:34:29.000Z,1015.32
2016-05-06T00:34:39.000Z,1015.32
2016-05-06T00:34:48.984Z,1015.3
2016-05-06T00:34:58.969Z,1015.28
2016-05-06T00:35:08.953Z,1015.3
2016-05-06T00:35:18.969Z,1015.31
2016-05-06T00:35:28.816Z,1015.29
2016-05-06T00:35:38.801Z,1015.28
2016-05-06T00:35:48.973Z,1015.29
2016-05-06T00:35:58.957Z,1015.28
2016-05-06T00:36:08.941Z,1015.26
2016-05-06T00:36:18.941Z,1015.31
2016-05-06T00:36:28.943Z,1015.3
2016-05-06T00:36:38.943Z,1015.28
2016-05-06T00:36:48.928Z,1015.29
2016-05-06T00:36:58.928Z,1015.31
2016-05-06T00:37:08.928Z,1015.27
2016-05-06T00:37:18.928Z,1015.3
2016-05-06T00:37:28.930Z,1015.32
2016-05-06T00:37:38.898Z,1015.31
2016-05-06T00:37:48.742Z,1015.33
2016-05-06T00:37:58.898Z,1015.33
2016-05-06T00:38:08.742Z,1015.3
2016-05-06T00:38:18.883Z,1015.27
2016-05-06T00:38:28.730Z,1015.3
2016-05-06T00:38:38.730Z,1015.3
2016-05-06T00:38:48.886Z,1015.27
2016-05-06T00:38:58.886Z,1015.26
2016-05-06T00:39:08.870Z,1015.3
2016-05-06T00:39:18.698Z,1015.26
2016-05-06T00:39:28.842Z,1015.3
2016-05-06T00:39:38.858Z,1015.27
2016-05-06T00:39:48.842Z,1015.28
2016-05-06T00:39:58.858Z,1015.29
2016-05-06T00:40:08.701Z,1015.3
2016-05-06T00:40:19.061Z,1015.29
2016-05-06T00:40:29.094Z,1015.27
2016-05-06T00:40:38.672Z,1015.28
2016-05-06T00:40:48.953Z,1015.3
2016-05-06T00:40:59.469Z,1015.29
2016-05-06T00:41:08.813Z,1015.32
2016-05-06T00:41:18.656Z,1015.32
2016-05-06T00:41:28.800Z,1015.32
2016-05-06T00:41:38.800Z,1015.29
2016-05-06T00:41:48.800Z,1015.29
2016-05-06T00:41:58.784Z,1015.28
2016-05-06T00:42:08.628Z,1015.27
2016-05-06T00:42:18.769Z,1015.31
2016-05-06T00:42:28.772Z,1015.28
2016-05-06T00:42:38.787Z,1015.29
2016-05-06T00:42:48.787Z,1015.27
2016-05-06T00:42:58.756Z,1015.29
2016-05-06T00:43:08.600Z,1015.27
2016-05-06T00:43:18.741Z,1015.27
2016-05-06T00:43:28.587Z,1015.3
2016-05-06T00:43:38.728Z,1015.28
2016-05-06T00:43:48.728Z,1015.27
2016-05-06T00:43:58.728Z,1015.28
2016-05-06T00:44:08.728Z,1015.28
2016-05-06T00:44:18.728Z,1015.21
2016-05-06T00:44:28.574Z,1015.24
2016-05-06T00:44:38.558Z,1015.3
2016-05-06T00:44:48.714Z,1015.25
2016-05-06T00:44:58.699Z,1015.22
2016-05-06T00:45:08.699Z,1015.25
2016-05-06T00:45:18.714Z,1015.28
2016-05-06T00:45:28.686Z,1015.26
2016-05-06T00:45:38.686Z,1015.22
2016-05-06T00:45:48.670Z,1015.26
2016-05-06T00:45:58.670Z,1015.27
2016-05-06T00:46:08.670Z,1015.24
2016-05-06T00:46:18.514Z,1015.23
2016-05-06T00:46:28.516Z,1015.28
2016-05-06T00:46:38.657Z,1015.21
2016-05-06T00:46:48.657Z,1015.25
2016-05-06T00:46:58.657Z,1015.23
2016-05-06T00:47:08.485Z,1015.28
2016-05-06T00:47:18.641Z,1015.27
2016-05-06T00:47:28.644Z,1015.22
2016-05-06T00:47:38.629Z,1015.23
2016-05-06T00:47:48.488Z,1015.23
2016-05-06T00:47:58.629Z,1015.21
2016-05-06T00:48:08.613Z,1015.19
2016-05-06T00:48:18.613Z,1015.24
2016-05-06T00:48:28.616Z,1015.22
2016-05-06T00:48:38.600Z,1015.22
2016-05-06T00:48:48.600Z,1015.2
2016-05-06T00:48:58.585Z,1015.22
2016-05-06T00:49:08.428Z,1015.2
2016-05-06T00:49:18.585Z,1015.23
2016-05-06T00:49:28.431Z,1015.19
2016-05-06T00:49:38.588Z,1015.2
2016-05-06T00:49:48.572Z,1015.19
2016-05-06T00:49:58.431Z,1015.26
2016-05-06T00:50:08.556Z,1015.23
2016-05-06T00:50:18.556Z,1015.18
2016-05-06T00:50:28.558Z,1015.22
2016-05-06T00:50:38.558Z,1015.2
2016-05-06T00:50:48.543Z,1015.2
2016-05-06T00:50:58.527Z,1015.25
2016-05-06T00:51:08.527Z,1015.21
2016-05-06T00:51:18.527Z,1015.16
2016-05-06T00:51:28.515Z,1015.18
2016-05-06T00:51:38.515Z,1015.17
2016-05-06T00:51:48.358Z,1015.18
2016-05-06T00:51:58.515Z,1015.21
2016-05-06T00:52:08.499Z,1015.22
2016-05-06T00:52:18.499Z,1015.19
2016-05-06T00:52:28.502Z,1015.15
2016-05-06T00:52:38.346Z,1015.19
2016-05-06T00:52:48.502Z,1015.18
2016-05-06T00:52:58.486Z,1015.17
2016-05-06T00:53:08.596Z,1015.17
2016-05-06T00:53:18.471Z,1015.17
2016-05-06T00:53:28.474Z,1015.2
2016-05-06T00:53:38.458Z,1015.19
2016-05-06T00:53:48.302Z,1015.17
2016-05-06T00:53:58.458Z,1015.15
2016-05-06T00:54:08.442Z,1015.14
2016-05-06T00:54:18.286Z,1015.15
2016-05-06T00:54:28.460Z,1015.18
2016-05-06T00:54:38.444Z,1015.13
2016-05-06T00:54:48.429Z,1015.14
2016-05-06T00:54:58.429Z,1015.14
2016-05-06T00:55:08.413Z,1015.13
2016-05-06T00:55:19.913Z,1015.15
2016-05-06T00:55:28.260Z,1015.12
2016-05-06T00:55:38.479Z,1015.15
2016-05-06T00:55:48.401Z,1015.11
2016-05-06T00:55:58.401Z,1015.15
2016-05-06T00:56:08.510Z,1015.17
2016-05-06T00:56:18.385Z,1015.15
2016-05-06T00:56:28.388Z,1015.15
2016-05-06T00:56:38.388Z,1015.15
2016-05-06T00:56:48.372Z,1015.16
2016-05-06T00:56:58.216Z,1015.16
2016-05-06T00:57:08.200Z,1015.14
2016-05-06T00:57:18.372Z,1015.12
2016-05-06T00:57:28.374Z,1015.16
2016-05-06T00:57:38.359Z,1015.17
2016-05-06T00:57:48.359Z,1015.18
2016-05-06T00:57:58.343Z,1015.11
2016-05-06T00:58:08.327Z,1015.13
2016-05-06T00:58:18.327Z,1015.15
2016-05-06T00:58:28.315Z,1015.15
2016-05-06T00:58:38.330Z,1015.14
2016-05-06T00:58:48.315Z,1015.15
2016-05-06T00:58:58.315Z,1015.09
2016-05-06T00:59:08.315Z,1015.16
2016-05-06T00:59:18.315Z,1015.13
2016-05-06T00:59:28.301Z,1015.13
2016-05-06T00:59:38.301Z,1015.16
2016-05-06T00:59:48.161Z,1015.13
2016-05-06T00:59:58.286Z,1015.1
2016-05-06T01:00:08.286Z,1015.15
2016-05-06T01:00:18.270Z,1015.14
2016-05-06T01:00:28.290Z,1015.14
2016-05-06T01:00:38.133Z,1015.17
2016-05-06T01:00:48.305Z,1015.13
2016-05-06T01:00:58.102Z,1015.13
2016-05-06T01:01:08.258Z,1015.11
2016-05-06T01:01:18.258Z,1015.13
2016-05-06T01:01:28.245Z,1015.12
2016-05-06T01:01:38.245Z,1015.13
2016-05-06T01:01:48.088Z,1015.15
2016-05-06T01:01:58.229Z,1015.11
2016-05-06T01:02:08.229Z,1015.13
2016-05-06T01:02:18.229Z,1015.11
2016-05-06T01:02:28.232Z,1015.15
2016-05-06T01:02:38.216Z,1015.13
2016-05-06T01:02:48.216Z,1015.13
2016-05-06T01:02:58.216Z,1015.11
2016-05-06T01:03:08.201Z,1015.13
2016-05-06T01:03:18.201Z,1015.12
2016-05-06T01:03:28.203Z,1015.11
2016-05-06T01:03:38.187Z,1015.15
2016-05-06T01:03:48.187Z,1015.17
2016-05-06T01:03:58.187Z,1015.12
2016-05-06T01:04:08.187Z,1015.13
2016-05-06T01:04:18.187Z,1015.11
2016-05-06T01:04:28.175Z,1015.13
2016-05-06T01:04:38.159Z,1015.14
2016-05-06T01:04:48.159Z,1015.15
2016-05-06T01:04:58.159Z,1015.11
2016-05-06T01:05:08.143Z,1015.17
2016-05-06T01:05:18.003Z,1015.16
2016-05-06T01:05:27.990Z,1015.12
2016-05-06T01:05:38.131Z,1015.12
2016-05-06T01:05:48.131Z,1015.16
2016-05-06T01:05:58.115Z,1015.13
2016-05-06T01:06:08.131Z,1015.13
2016-05-06T01:06:18.131Z,1015.1
2016-05-06T01:06:28.118Z,1015.12
2016-05-06T01:06:38.118Z,1015.14
2016-05-06T01:06:48.102Z,1015.09
2016-05-06T01:06:58.087Z,1015.12
2016-05-06T01:07:08.087Z,1015.09
2016-05-06T01:07:17.931Z,1015.12
2016-05-06T01:07:27.933Z,1015.11
2016-05-06T01:07:38.089Z,1015.11
2016-05-06T01:07:48.089Z,1015.09
2016-05-06T01:07:58.073Z,1015.14
2016-05-06T01:08:08.058Z,1015.12
2016-05-06T01:08:17.917Z,1015.11
2016-05-06T01:08:28.061Z,1015.08
2016-05-06T01:08:38.061Z,1015.09
2016-05-06T01:08:48.061Z,1015.08
2016-05-06T01:08:58.045Z,1015.12
2016-05-06T01:09:08.045Z,1015.1
2016-05-06T01:09:18.029Z,1015.12
2016-05-06T01:09:28.032Z,1015.1
2016-05-06T01:09:38.032Z,1015.11
2016-05-06T01:09:48.017Z,1015.08
2016-05-06T01:09:58.017Z,1015.05
2016-05-06T01:10:08.001Z,1015.08
2016-05-06T01:10:18.548Z,1015.1
2016-05-06T01:10:28.034Z,1015.11
2016-05-06T01:10:38.003Z,1015.09
2016-05-06T01:10:48.269Z,1015.09
2016-05-06T01:10:58.222Z,1015.07
2016-05-06T01:11:08.003Z,1015.1
2016-05-06T01:11:17.816Z,1015.08
2016-05-06T01:11:27.975Z,1015.09
2016-05-06T01:11:37.819Z,1015.09
2016-05-06T01:11:47.975Z,1015.08
2016-05-06T01:11:57.959Z,1015.05
2016-05-06T01:12:07.959Z,1015.07
2016-05-06T01:12:17.944Z,1015.09
2016-05-06T01:12:27.946Z,1015.06
2016-05-06T01:12:37.961Z,1015.11
2016-05-06T01:12:47.946Z,1015.06
2016-05-06T01:12:57.930Z,1015.08
2016-05-06T01:13:07.774Z,1015.11
2016-05-06T01:13:17.774Z,1015.08
2016-05-06T01:13:27.918Z,1015.1
2016-05-06T01:13:37.918Z,1015.12
2016-05-06T01:13:47.918Z,1015.1
2016-05-06T01:13:57.903Z,1015.1
2016-05-06T01:14:07.887Z,1015.09
2016-05-06T01:14:17.903Z,1015.12
2016-05-06T01:14:27.889Z,1015.09
2016-05-06T01:14:37.733Z,1015.1
2016-05-06T01:14:47.873Z,1015.06
2016-05-06T01:14:57.717Z,1015.08
2016-05-06T01:15:07.873Z,1015.04
2016-05-06T01:15:17.858Z,1015.09
2016-05-06T01:15:27.861Z,1015.08
2016-05-06T01:15:37.861Z,1015.1
2016-05-06T01:15:47.845Z,1015.1
2016-05-06T01:15:57.705Z,1015.11
2016-05-06T01:16:07.845Z,1015.11
2016-05-06T01:16:17.689Z,1015.1
2016-05-06T01:16:27.847Z,1015.11
2016-05-06T01:16:37.832Z,1015.08
2016-05-06T01:16:47.832Z,1015.12
2016-05-06T01:16:57.832Z,1015.09
2016-05-06T01:17:07.832Z,1015.07
2016-05-06T01:17:17.800Z,1015.06
2016-05-06T01:17:27.803Z,1015.09
2016-05-06T01:17:37.647Z,1015.05
2016-05-06T01:17:47.631Z,1015.07
2016-05-06T01:17:57.803Z,1015.08
2016-05-06T01:18:07.788Z,1015.08
2016-05-06T01:18:17.788Z,1015.08
2016-05-06T01:18:27.791Z,1015.06
2016-05-06T01:18:37.619Z,1015.09
2016-05-06T01:18:47.775Z,1015.05
2016-05-06T01:18:57.775Z,1015.05
2016-05-06T01:19:07.759Z,1015.06
2016-05-06T01:19:17.775Z,1015.06
2016-05-06T01:19:27.762Z,1015.06
2016-05-06T01:19:37.747Z,1015.07
2016-05-06T01:19:47.606Z,1015.07
2016-05-06T01:19:57.575Z,1015.05
2016-05-06T01:20:07.747Z,1015.06
2016-05-06T01:20:17.575Z,1015.04
2016-05-06T01:20:27.733Z,1015.05
2016-05-06T01:20:37.718Z,1015.05
2016-05-06T01:20:47.561Z,1015.04
2016-05-06T01:20:57.546Z,1015.05
2016-05-06T01:21:07.686Z,1015.06
2016-05-06T01:21:17.702Z,1015.04
2016-05-06T01:21:27.704Z,1015.06
2016-05-06T01:21:37.688Z,1015.07
2016-05-06T01:21:47.704Z,1015.04
2016-05-06T01:21:57.532Z,1015.04
2016-05-06T01:22:07.673Z,1015.03
2016-05-06T01:22:17.673Z,1015.08
2016-05-06T01:22:27.661Z,1015.07
2016-05-06T01:22:37.661Z,1015.06
2016-05-06T01:22:47.661Z,1015.04
2016-05-06T01:22:57.645Z,1015.05
2016-05-06T01:23:07.661Z,1015.07
2016-05-06T01:23:17.645Z,1015.07
2016-05-06T01:23:27.632Z,1015.09
2016-05-06T01:23:37.491Z,1015.07
2016-05-06T01:23:47.632Z,1015.06
2016-05-06T01:23:57.460Z,1015.1
2016-05-06T01:24:07.616Z,1015.07
2016-05-06T01:24:17.616Z,1015.08
2016-05-06T01:24:27.447Z,1015.06
2016-05-06T01:24:37.619Z,1015.02
2016-05-06T01:24:47.604Z,1015.06
2016-05-06T01:24:57.604Z,1015.04
2016-05-06T01:25:07.291Z,1015.06
2016-05-06T01:25:17.588Z,1015.05
2016-05-06T01:25:27.543Z,1015.1
2016-05-06T01:25:38.090Z,1015.08
2016-05-06T01:25:47.590Z,1015.04
2016-05-06T01:25:57.621Z,1015.09
2016-05-06T01:26:07.418Z,1015.09
2016-05-06T01:26:17.559Z,1015.06
2016-05-06T01:26:27.406Z,1015.07
2016-05-06T01:26:37.547Z,1015.08
2016-05-06T01:26:47.563Z,1015.09
2016-05-06T01:26:57.547Z,1015.08
2016-05-06T01:27:07.531Z,1015.06
2016-05-06T01:27:17.375Z,1015.08
2016-05-06T01:27:27.377Z,1015.04
2016-05-06T01:27:37.518Z,1015.07
2016-05-06T01:27:47.518Z,1015.03
2016-05-06T01:27:57.518Z,1015.06
2016-05-06T01:28:07.518Z,1015.05
2016-05-06T01:28:17.346Z,1015.02
2016-05-06T01:28:27.521Z,1015.01
2016-05-06T01:28:37.349Z,1015.07
2016-05-06T01:28:47.490Z,1015.08
2016-05-06T01:28:57.474Z,1015.08
2016-05-06T01:29:07.490Z,1015.07
2016-05-06T01:29:17.490Z,1015.06
2016-05-06T01:29:27.476Z,1015.1
2016-05-06T01:29:37.476Z,1015.05
2016-05-06T01:29:47.476Z,1015.06
2016-05-06T01:29:57.460Z,1015.03
2016-05-06T01:30:07.445Z,1015.08
2016-05-06T01:30:17.445Z,1015.08
2016-05-06T01:30:27.291Z,1015.09
2016-05-06T01:30:37.291Z,1015.08
2016-05-06T01:30:47.432Z,1015.07
2016-05-06T01:30:57.432Z,1015.04
2016-05-06T01:31:07.260Z,1015.11
2016-05-06T01:31:17.416Z,1015.03
2016-05-06T01:31:27.263Z,1015.08
2016-05-06T01:31:37.404Z,1015.07
2016-05-06T01:31:47.263Z,1015.06
2016-05-06T01:31:57.263Z,1015.09
2016-05-06T01:32:07.419Z,1015.04
2016-05-06T01:32:17.232Z,1015.09
2016-05-06T01:32:27.234Z,1015.07
2016-05-06T01:32:37.390Z,1015.07
2016-05-06T01:32:47.390Z,1015.08
2016-05-06T01:32:57.453Z,1015.08
2016-05-06T01:33:07.218Z,1015.08
2016-05-06T01:33:17.359Z,1015.11
2016-05-06T01:33:27.362Z,1015.07
2016-05-06T01:33:37.206Z,1015.07
2016-05-06T01:33:47.346Z,1015.11
2016-05-06T01:33:57.346Z,1015.09
2016-05-06T01:34:07.346Z,1015.06
2016-05-06T01:34:17.190Z,1015.07
2016-05-06T01:34:27.333Z,1015.02
2016-05-06T01:34:37.176Z,1015.05
2016-05-06T01:34:47.176Z,1015.1
2016-05-06T01:34:57.317Z,1015.04
2016-05-06T01:35:07.161Z,1015.03
2016-05-06T01:35:17.145Z,1015.05
2016-05-06T01:35:27.290Z,1015.02
2016-05-06T01:35:37.165Z,1015.05
2016-05-06T01:35:47.290Z,1015.06
2016-05-06T01:35:57.290Z,1015.06
2016-05-06T01:36:07.290Z,1015.06
2016-05-06T01:36:17.274Z,1015.04
2016-05-06T01:36:27.292Z,1015.04
2016-05-06T01:36:37.120Z,1015.05
2016-05-06T01:36:47.261Z,1015.06
2016-05-06T01:36:57.261Z,1015.03
2016-05-06T01:37:07.261Z,1014.97
2016-05-06T01:37:17.261Z,1015
2016-05-06T01:37:27.247Z,1015.01
2016-05-06T01:37:37.247Z,1015.08
2016-05-06T01:37:47.247Z,1015.04
2016-05-06T01:37:57.231Z,1015.05
2016-05-06T01:38:07.075Z,1015.04
2016-05-06T01:38:17.216Z,1015.05
2016-05-06T01:38:27.219Z,1015.01
2016-05-06T01:38:37.219Z,1015.04
2016-05-06T01:38:47.250Z,1015.04
2016-05-06T01:38:57.203Z,1015.06
2016-05-06T01:39:07.203Z,1015.04
2016-05-06T01:39:17.203Z,1015.03
2016-05-06T01:39:27.191Z,1014.98
2016-05-06T01:39:37.191Z,1015.06
2016-05-06T01:39:47.191Z,1015.05
2016-05-06T01:39:57.191Z,1015.01
2016-05-06T01:40:07.035Z,1015.04
2016-05-06T01:40:17.176Z,1015.05
2016-05-06T01:40:27.193Z,1015.04
2016-05-06T01:40:37.225Z,1015.02
2016-05-06T01:40:47.115Z,1014.99
2016-05-06T01:40:56.990Z,1015
2016-05-06T01:41:08.162Z,1015.01
2016-05-06T01:41:17.147Z,1015.02
2016-05-06T01:41:26.977Z,1015.04
2016-05-06T01:41:37.133Z,1015.01
2016-05-06T01:41:47.133Z,1015.01
2016-05-06T01:41:57.133Z,1015
2016-05-06T01:42:06.961Z,1015.03
2016-05-06T01:42:16.961Z,1015.01
2016-05-06T01:42:26.965Z,1015.01
2016-05-06T01:42:37.106Z,1015.01
2016-05-06T01:42:46.949Z,1015.03
2016-05-06T01:42:56.934Z,1015.07
2016-05-06T01:43:07.090Z,1015.02
2016-05-06T01:43:16.949Z,1015.03
2016-05-06T01:43:27.108Z,1015.03
2016-05-06T01:43:36.936Z,1015.05
2016-05-06T01:43:47.076Z,1015.05
2016-05-06T01:43:57.061Z,1015.04
2016-05-06T01:44:07.061Z,1015.03
2016-05-06T01:44:17.061Z,1015.05
2016-05-06T01:44:27.048Z,1015.07
2016-05-06T01:44:37.064Z,1015.06
2016-05-06T01:44:47.048Z,1015.03
2016-05-06T01:44:56.892Z,1015.06
2016-05-06T01:45:06.876Z,1015.05
2016-05-06T01:45:16.876Z,1015.05
2016-05-06T01:45:27.035Z,1015.04
2016-05-06T01:45:36.878Z,1015.07
2016-05-06T01:45:47.035Z,1015.03
2016-05-06T01:45:57.003Z,1015.04
2016-05-06T01:46:06.847Z,1015.02
2016-05-06T01:46:16.847Z,1015.03
2016-05-06T01:46:26.991Z,1015.02
2016-05-06T01:46:36.991Z,1014.97
2016-05-06T01:46:46.850Z,1015.05
2016-05-06T01:46:56.991Z,1015.03
2016-05-06T01:47:06.991Z,1015.01
2016-05-06T01:47:16.975Z,1014.99
2016-05-06T01:47:26.978Z,1015
2016-05-06T01:47:36.822Z,1015
2016-05-06T01:47:46.962Z,1014.97
2016-05-06T01:47:56.978Z,1014.99
2016-05-06T01:48:06.962Z,1014.97
2016-05-06T01:48:16.962Z,1015.03
2016-05-06T01:48:26.981Z,1014.99
2016-05-06T01:48:36.965Z,1014.96
2016-05-06T01:48:46.934Z,1014.97
2016-05-06T01:48:56.934Z,1014.97
2016-05-06T01:49:06.778Z,1014.94
2016-05-06T01:49:16.919Z,1014.95
2016-05-06T01:49:26.905Z,1014.94
2016-05-06T01:49:36.764Z,1014.97
2016-05-06T01:49:46.905Z,1014.97
2016-05-06T01:49:56.749Z,1014.96
2016-05-06T01:50:06.905Z,1014.96
2016-05-06T01:50:16.749Z,1014.94
2016-05-06T01:50:26.891Z,1015
2016-05-06T01:50:36.876Z,1014.94
2016-05-06T01:50:46.876Z,1014.93
2016-05-06T01:50:56.719Z,1014.97
2016-05-06T01:51:06.860Z,1014.92
2016-05-06T01:51:16.860Z,1014.91
2016-05-06T01:51:26.708Z,1014.89
2016-05-06T01:51:36.864Z,1014.91
2016-05-06T01:51:46.708Z,1014.94
2016-05-06T01:51:56.848Z,1014.91
2016-05-06T01:52:06.692Z,1014.95
2016-05-06T01:52:16.833Z,1014.9
2016-05-06T01:52:26.836Z,1014.94
2016-05-06T01:52:36.836Z,1014.95
2016-05-06T01:52:46.820Z,1014.88
2016-05-06T01:52:56.820Z,1014.91
2016-05-06T01:53:06.805Z,1014.92
2016-05-06T01:53:16.805Z,1014.9
2016-05-06T01:53:26.650Z,1014.94
2016-05-06T01:53:36.807Z,1014.9
2016-05-06T01:53:46.807Z,1014.9
2016-05-06T01:53:56.775Z,1014.91
2016-05-06T01:54:06.775Z,1014.88
2016-05-06T01:54:16.775Z,1014.9
2016-05-06T01:54:26.777Z,1014.86
2016-05-06T01:54:36.777Z,1014.89
2016-05-06T01:54:46.777Z,1014.87
2016-05-06T01:54:56.762Z,1014.87
2016-05-06T01:55:06.762Z,1014.9
2016-05-06T01:55:16.996Z,1014.89
2016-05-06T01:55:26.609Z,1014.86
2016-05-06T01:55:36.906Z,1014.86
2016-05-06T01:55:46.750Z,1014.89
2016-05-06T01:55:56.953Z,1014.88
2016-05-06T01:56:06.578Z,1014.86
2016-05-06T01:56:16.734Z,1014.87
2016-05-06T01:56:26.705Z,1014.89
2016-05-06T01:56:36.721Z,1014.91
2016-05-06T01:56:46.736Z,1014.87
2016-05-06T01:56:56.705Z,1014.86
2016-05-06T01:57:06.705Z,1014.86
2016-05-06T01:57:16.690Z,1014.84
2016-05-06T01:57:26.536Z,1014.87
2016-05-06T01:57:36.693Z,1014.86
2016-05-06T01:57:46.521Z,1014.81
2016-05-06T01:57:56.693Z,1014.91
2016-05-06T01:58:06.677Z,1014.9
2016-05-06T01:58:16.521Z,1014.86
2016-05-06T01:58:26.663Z,1014.87
2016-05-06T01:58:36.663Z,1014.85
2016-05-06T01:58:46.648Z,1014.88
2016-05-06T01:58:56.648Z,1014.82
2016-05-06T01:59:06.648Z,1014.85
2016-05-06T01:59:16.632Z,1014.87
2016-05-06T01:59:26.651Z,1014.89
2016-05-06T01:59:36.635Z,1014.83
2016-05-06T01:59:46.619Z,1014.85
2016-05-06T01:59:56.619Z,1014.82
2016-05-06T02:00:06.619Z,1014.89
2016-05-06T02:00:16.619Z,1014.85
2016-05-06T02:00:26.622Z,1014.83
2016-05-06T02:00:36.451Z,1014.84
2016-05-06T02:00:46.607Z,1014.84
2016-05-06T02:00:56.607Z,1014.85
2016-05-06T02:01:06.435Z,1014.81
2016-05-06T02:01:16.435Z,1014.79
2016-05-06T02:01:26.578Z,1014.83